sensor_id;sensor_type;location;lat;lon;timestamp;temperature;humidity
11387;DHT22;5748;53.102;8.456;2024-03-23T00:55:07;11.00;64.00
11387;DHT22;5748;53.102;8.456;2024-03-23T00:57:34;11.00;64.60
11387;DHT22;5748;53.102;8.456;2024-03-23T01:00:00;10.90;63.90
11387;DHT22;5748;53.102;8.456;2024-03-23T01:02:27;10.90;64.00
11387;DHT22;5748;53.102;8.456;2024-03-23T01:04:53;10.80;64.00
11387;DHT22;5748;53.102;8.456;2024-03-23T01:07:20;11.20;64.40
11387;DHT22;5748;53.102;8.456;2024-03-23T01:09:47;10.80;64.10
11387;DHT22;5748;53.102;8.456;2024-03-23T01:12:14;10.80;64.30
11387;DHT22;5748;53.102;8.456;2024-03-23T01:14:40;10.80;64.30
11387;DHT22;5748;53.102;8.456;2024-03-23T01:17:07;10.80;64.40
11387;DHT22;5748;53.102;8.456;2024-03-23T01:19:33;10.70;65.00
11387;DHT22;5748;53.102;8.456;2024-03-23T01:22:00;10.80;64.40
11387;DHT22;5748;53.102;8.456;2024-03-23T01:24:26;10.70;64.40
11387;DHT22;5748;53.102;8.456;2024-03-23T01:26:55;10.70;64.40
11387;DHT22;5748;53.102;8.456;2024-03-23T01:29:21;10.80;64.60
11387;DHT22;5748;53.102;8.456;2024-03-23T01:31:48;10.80;64.60
11387;DHT22;5748;53.102;8.456;2024-03-23T01:34:14;10.70;64.60
11387;DHT22;5748;53.102;8.456;2024-03-23T01:36:41;10.80;64.70
11387;DHT22;5748;53.102;8.456;2024-03-23T01:39:07;10.60;64.50
11387;DHT22;5748;53.102;8.456;2024-03-23T01:41:35;10.60;64.50
11387;DHT22;5748;53.102;8.456;2024-03-23T01:44:05;10.70;64.70
11387;DHT22;5748;53.102;8.456;2024-03-23T01:46:33;10.70;64.80
11387;DHT22;5748;53.102;8.456;2024-03-23T01:48:59;10.70;64.70
11387;DHT22;5748;53.102;8.456;2024-03-23T01:51:27;10.70;64.80
11387;DHT22;5748;53.102;8.456;2024-03-23T01:53:54;10.60;64.70
11387;DHT22;5748;53.102;8.456;2024-03-23T01:56:22;10.60;64.80
11387;DHT22;5748;53.102;8.456;2024-03-23T01:58:48;10.60;64.80
11387;DHT22;5748;53.102;8.456;2024-03-23T02:01:16;10.60;64.80
11387;DHT22;5748;53.102;8.456;2024-03-23T02:03:42;10.60;64.80
11387;DHT22;5748;53.102;8.456;2024-03-23T02:06:10;10.70;64.80
11387;DHT22;5748;53.102;8.456;2024-03-23T02:08:36;10.60;64.80
11387;DHT22;5748;53.102;8.456;2024-03-23T02:11:03;10.60;64.80
11387;DHT22;5748;53.102;8.456;2024-03-23T02:13:29;10.60;64.80
11387;DHT22;5748;53.102;8.456;2024-03-23T02:15:57;10.60;64.90
11387;DHT22;5748;53.102;8.456;2024-03-23T02:18:25;10.50;64.90
11387;DHT22;5748;53.102;8.456;2024-03-23T02:20:52;10.60;65.00
11387;DHT22;5748;53.102;8.456;2024-03-23T02:23:19;10.60;65.00
11387;DHT22;5748;53.102;8.456;2024-03-23T02:25:46;10.50;64.90
11387;DHT22;5748;53.102;8.456;2024-03-23T02:28:13;10.50;64.90
11387;DHT22;5748;53.102;8.456;2024-03-23T02:30:40;10.50;65.30
11387;DHT22;5748;53.102;8.456;2024-03-23T02:33:06;10.50;65.10
11387;DHT22;5748;53.102;8.456;2024-03-23T02:35:33;10.50;65.00
11387;DHT22;5748;53.102;8.456;2024-03-23T02:37:59;10.50;64.90
11387;DHT22;5748;53.102;8.456;2024-03-23T02:40:28;10.40;65.00
11387;DHT22;5748;53.102;8.456;2024-03-23T02:42:54;10.40;65.10
11387;DHT22;5748;53.102;8.456;2024-03-23T02:45:21;10.40;65.00
11387;DHT22;5748;53.102;8.456;2024-03-23T02:47:47;10.50;64.70
11387;DHT22;5748;53.102;8.456;2024-03-23T02:50:17;10.30;65.00
11387;DHT22;5748;53.102;8.456;2024-03-23T02:52:44;10.40;65.10
11387;DHT22;5748;53.102;8.456;2024-03-23T02:55:11;10.50;64.90
11387;DHT22;5748;53.102;8.456;2024-03-23T02:57:38;10.50;65.20
11387;DHT22;5748;53.102;8.456;2024-03-23T03:00:06;10.50;65.20
11387;DHT22;5748;53.102;8.456;2024-03-23T03:02:33;10.40;65.10
11387;DHT22;5748;53.102;8.456;2024-03-23T03:05:00;10.40;65.10
11387;DHT22;5748;53.102;8.456;2024-03-23T03:07:26;10.40;65.10
11387;DHT22;5748;53.102;8.456;2024-03-23T03:09:53;10.40;65.20
11387;DHT22;5748;53.102;8.456;2024-03-23T03:12:19;10.40;65.10
11387;DHT22;5748;53.102;8.456;2024-03-23T03:14:47;10.40;65.10
11387;DHT22;5748;53.102;8.456;2024-03-23T03:17:13;10.30;65.00
11387;DHT22;5748;53.102;8.456;2024-03-23T03:19:41;10.40;65.10
11387;DHT22;5748;53.102;8.456;2024-03-23T03:22:06;10.50;65.20
11387;DHT22;5748;53.102;8.456;2024-03-23T03:24:34;10.30;65.10
11387;DHT22;5748;53.102;8.456;2024-03-23T03:27:00;10.30;65.00
11387;DHT22;5748;53.102;8.456;2024-03-23T03:29:29;10.20;65.00
11387;DHT22;5748;53.102;8.456;2024-03-23T03:32:02;10.30;65.10
11387;DHT22;5748;53.102;8.456;2024-03-23T03:34:29;10.40;65.30
11387;DHT22;5748;53.102;8.456;2024-03-23T03:36:56;10.20;65.10
11387;DHT22;5748;53.102;8.456;2024-03-23T03:39:25;10.50;65.50
11387;DHT22;5748;53.102;8.456;2024-03-23T03:41:51;10.20;65.10
11387;DHT22;5748;53.102;8.456;2024-03-23T03:44:18;10.10;65.00
11387;DHT22;5748;53.102;8.456;2024-03-23T03:46:44;10.20;65.90
11387;DHT22;5748;53.102;8.456;2024-03-23T03:49:12;10.10;65.10
11387;DHT22;5748;53.102;8.456;2024-03-23T03:51:38;10.10;65.20
11387;DHT22;5748;53.102;8.456;2024-03-23T03:54:05;10.10;65.20
11387;DHT22;5748;53.102;8.456;2024-03-23T03:56:31;10.10;65.20
11387;DHT22;5748;53.102;8.456;2024-03-23T03:58:58;10.10;65.20
11387;DHT22;5748;53.102;8.456;2024-03-23T04:01:24;10.10;65.20
11387;DHT22;5748;53.102;8.456;2024-03-23T04:03:51;10.10;65.20
11387;DHT22;5748;53.102;8.456;2024-03-23T04:06:21;10.00;65.10
11387;DHT22;5748;53.102;8.456;2024-03-23T04:08:49;10.10;65.30
11387;DHT22;5748;53.102;8.456;2024-03-23T04:11:15;10.00;65.20
11387;DHT22;5748;53.102;8.456;2024-03-23T04:13:42;10.00;65.30
11387;DHT22;5748;53.102;8.456;2024-03-23T04:16:08;9.90;66.40
11387;DHT22;5748;53.102;8.456;2024-03-23T04:18:36;10.20;65.60
11387;DHT22;5748;53.102;8.456;2024-03-23T04:21:02;10.00;65.50
11387;DHT22;5748;53.102;8.456;2024-03-23T04:23:31;10.00;66.20
11387;DHT22;5748;53.102;8.456;2024-03-23T04:26:03;9.90;66.60
11387;DHT22;5748;53.102;8.456;2024-03-23T04:28:30;9.90;66.80
11387;DHT22;5748;53.102;8.456;2024-03-23T04:30:56;9.90;66.60
11387;DHT22;5748;53.102;8.456;2024-03-23T04:33:23;10.00;65.60
11387;DHT22;5748;53.102;8.456;2024-03-23T04:35:49;9.90;66.60
11387;DHT22;5748;53.102;8.456;2024-03-23T04:38:16;9.90;66.60
11387;DHT22;5748;53.102;8.456;2024-03-23T04:40:45;9.90;66.60
11387;DHT22;5748;53.102;8.456;2024-03-23T04:43:12;9.90;66.60
11387;DHT22;5748;53.102;8.456;2024-03-23T04:45:39;9.90;66.60
11387;DHT22;5748;53.102;8.456;2024-03-23T04:48:05;10.00;65.60
11387;DHT22;5748;53.102;8.456;2024-03-23T04:50:33;9.90;66.60
11387;DHT22;5748;53.102;8.456;2024-03-23T04:53:00;9.90;66.50
11387;DHT22;5748;53.102;8.456;2024-03-23T04:55:27;9.90;66.50
11387;DHT22;5748;53.102;8.456;2024-03-23T04:57:55;9.90;66.40
11387;DHT22;5748;53.102;8.456;2024-03-23T05:00:21;9.90;66.30
11387;DHT22;5748;53.102;8.456;2024-03-23T05:02:48;9.90;66.30
11387;DHT22;5748;53.102;8.456;2024-03-23T05:05:16;9.80;66.20
11387;DHT22;5748;53.102;8.456;2024-03-23T05:07:42;9.80;66.10
11387;DHT22;5748;53.102;8.456;2024-03-23T05:10:10;8.10;64.40
11387;DHT22;5748;53.102;8.456;2024-03-23T05:12:36;9.70;66.70
11387;DHT22;5748;53.102;8.456;2024-03-23T05:15:06;9.70;66.00
11387;DHT22;5748;53.102;8.456;2024-03-23T05:17:33;9.60;66.00
11387;DHT22;5748;53.102;8.456;2024-03-23T05:20:01;9.60;66.00
11387;DHT22;5748;53.102;8.456;2024-03-23T05:22:28;9.50;65.90
11387;DHT22;5748;53.102;8.456;2024-03-23T05:24:56;9.40;65.90
11387;DHT22;5748;53.102;8.456;2024-03-23T05:27:22;9.50;66.10
11387;DHT22;5748;53.102;8.456;2024-03-23T05:29:49;9.40;66.10
11387;DHT22;5748;53.102;8.456;2024-03-23T05:32:17;9.40;66.10
11387;DHT22;5748;53.102;8.456;2024-03-23T05:34:44;9.30;66.00
11387;DHT22;5748;53.102;8.456;2024-03-23T05:37:10;9.30;66.00
11387;DHT22;5748;53.102;8.456;2024-03-23T05:39:37;9.30;66.10
11387;DHT22;5748;53.102;8.456;2024-03-23T05:42:03;9.20;66.20
11387;DHT22;5748;53.102;8.456;2024-03-23T05:44:30;9.20;66.20
11387;DHT22;5748;53.102;8.456;2024-03-23T05:46:57;9.20;66.20
11387;DHT22;5748;53.102;8.456;2024-03-23T05:49:25;9.10;66.20
11387;DHT22;5748;53.102;8.456;2024-03-23T05:51:51;9.00;66.40
11387;DHT22;5748;53.102;8.456;2024-03-23T05:54:18;9.00;66.40
11387;DHT22;5748;53.102;8.456;2024-03-23T05:56:44;9.00;66.60
11387;DHT22;5748;53.102;8.456;2024-03-23T05:59:12;9.00;66.60
11387;DHT22;5748;53.102;8.456;2024-03-23T06:01:38;9.00;66.60
11387;DHT22;5748;53.102;8.456;2024-03-23T06:04:05;9.00;66.60
11387;DHT22;5748;53.102;8.456;2024-03-23T06:06:32;8.90;66.60
11387;DHT22;5748;53.102;8.456;2024-03-23T06:08:59;8.90;66.50
11387;DHT22;5748;53.102;8.456;2024-03-23T06:11:25;8.90;66.90
11387;DHT22;5748;53.102;8.456;2024-03-23T06:13:52;8.90;66.90
11387;DHT22;5748;53.102;8.456;2024-03-23T06:16:18;8.90;66.90
11387;DHT22;5748;53.102;8.456;2024-03-23T06:21:15;8.90;66.60
11387;DHT22;5748;53.102;8.456;2024-03-23T06:23:44;9.50;67.70
11387;DHT22;5748;53.102;8.456;2024-03-23T06:26:16;9.00;67.50
11387;DHT22;5748;53.102;8.456;2024-03-23T06:28:43;8.90;67.60
11387;DHT22;5748;53.102;8.456;2024-03-23T06:31:09;9.00;67.50
11387;DHT22;5748;53.102;8.456;2024-03-23T06:33:37;9.00;67.60
11387;DHT22;5748;53.102;8.456;2024-03-23T06:36:03;9.00;67.70
11387;DHT22;5748;53.102;8.456;2024-03-23T06:38:31;9.10;68.00
11387;DHT22;5748;53.102;8.456;2024-03-23T06:40:59;9.10;67.90
11387;DHT22;5748;53.102;8.456;2024-03-23T06:43:26;9.20;68.20
11387;DHT22;5748;53.102;8.456;2024-03-23T06:45:55;9.20;68.20
11387;DHT22;5748;53.102;8.456;2024-03-23T06:48:23;9.40;68.70
11387;DHT22;5748;53.102;8.456;2024-03-23T06:50:49;9.40;68.50
11387;DHT22;5748;53.102;8.456;2024-03-23T06:55:50;9.50;68.30
11387;DHT22;5748;53.102;8.456;2024-03-23T06:58:20;9.70;69.00
11387;DHT22;5748;53.102;8.456;2024-03-23T07:00:46;9.70;68.90
11387;DHT22;5748;53.102;8.456;2024-03-23T07:03:14;9.80;68.90
11387;DHT22;5748;53.102;8.456;2024-03-23T07:05:40;9.90;69.00
11387;DHT22;5748;53.102;8.456;2024-03-23T07:08:08;10.20;67.50
11387;DHT22;5748;53.102;8.456;2024-03-23T07:10:34;10.10;67.80
11387;DHT22;5748;53.102;8.456;2024-03-23T07:13:01;10.30;67.80
11387;DHT22;5748;53.102;8.456;2024-03-23T07:15:28;10.40;67.70
11387;DHT22;5748;53.102;8.456;2024-03-23T07:17:55;10.60;67.30
11387;DHT22;5748;53.102;8.456;2024-03-23T07:20:21;10.60;67.20
11387;DHT22;5748;53.102;8.456;2024-03-23T07:22:48;10.70;67.30
11387;DHT22;5748;53.102;8.456;2024-03-23T07:27:42;11.00;67.50
11387;DHT22;5748;53.102;8.456;2024-03-23T07:30:08;11.10;67.40
11387;DHT22;5748;53.102;8.456;2024-03-23T07:32:37;11.30;68.40
11387;DHT22;5748;53.102;8.456;2024-03-23T07:35:04;11.40;69.30
11387;DHT22;5748;53.102;8.456;2024-03-23T07:37:31;11.60;68.80
11387;DHT22;5748;53.102;8.456;2024-03-23T07:39:57;11.80;69.10
11387;DHT22;5748;53.102;8.456;2024-03-23T07:42:25;12.00;68.90
11387;DHT22;5748;53.102;8.456;2024-03-23T07:44:52;12.20;69.00
11387;DHT22;5748;53.102;8.456;2024-03-23T07:47:20;12.30;69.00
11387;DHT22;5748;53.102;8.456;2024-03-23T07:49:48;12.60;67.70
11387;DHT22;5748;53.102;8.456;2024-03-23T07:54:41;13.00;68.10
11387;DHT22;5748;53.102;8.456;2024-03-23T07:57:08;13.20;68.30
11387;DHT22;5748;53.102;8.456;2024-03-23T07:59:34;13.50;67.10
11387;DHT22;5748;53.102;8.456;2024-03-23T08:02:01;13.60;69.40
11387;DHT22;5748;53.102;8.456;2024-03-23T08:04:27;13.90;70.30
11387;DHT22;5748;53.102;8.456;2024-03-23T08:06:56;14.20;70.90
11387;DHT22;5748;53.102;8.456;2024-03-23T08:09:22;14.60;68.30
11387;DHT22;5748;53.102;8.456;2024-03-23T08:11:49;14.80;69.70
11387;DHT22;5748;53.102;8.456;2024-03-23T08:14:15;15.10;69.20
11387;DHT22;5748;53.102;8.456;2024-03-23T08:16:42;15.40;68.80
11387;DHT22;5748;53.102;8.456;2024-03-23T08:19:14;15.70;66.30
11387;DHT22;5748;53.102;8.456;2024-03-23T08:24:09;16.00;68.20
11387;DHT22;5748;53.102;8.456;2024-03-23T08:26:36;16.20;69.10
11387;DHT22;5748;53.102;8.456;2024-03-23T08:29:03;16.70;66.40
11387;DHT22;5748;53.102;8.456;2024-03-23T08:31:30;16.80;70.60
11387;DHT22;5748;53.102;8.456;2024-03-23T08:33:56;17.20;71.80
11387;DHT22;5748;53.102;8.456;2024-03-23T08:36:23;17.60;71.20
11387;DHT22;5748;53.102;8.456;2024-03-23T08:38:49;18.00;71.80
11387;DHT22;5748;53.102;8.456;2024-03-23T08:41:20;18.80;68.00
11387;DHT22;5748;53.102;8.456;2024-03-23T08:43:46;18.80;69.90
11387;DHT22;5748;53.102;8.456;2024-03-23T08:46:15;19.20;69.40
11387;DHT22;5748;53.102;8.456;2024-03-23T08:48:42;19.40;67.90
11387;DHT22;5748;53.102;8.456;2024-03-23T08:51:11;19.60;67.20
11387;DHT22;5748;53.102;8.456;2024-03-23T08:53:40;19.70;65.60
11387;DHT22;5748;53.102;8.456;2024-03-23T08:56:08;19.70;64.20
11387;DHT22;5748;53.102;8.456;2024-03-23T08:58:37;19.60;63.10
11387;DHT22;5748;53.102;8.456;2024-03-23T09:01:06;19.30;57.70
11387;DHT22;5748;53.102;8.456;2024-03-23T09:03:33;19.30;60.20
11387;DHT22;5748;53.102;8.456;2024-03-23T09:06:00;19.00;59.40
11387;DHT22;5748;53.102;8.456;2024-03-23T09:08:27;18.50;58.30
11387;DHT22;5748;53.102;8.456;2024-03-23T09:10:54;18.50;61.30
11387;DHT22;5748;53.102;8.456;2024-03-23T09:13:21;18.30;61.50
11387;DHT22;5748;53.102;8.456;2024-03-23T09:15:50;18.10;61.90
11387;DHT22;5748;53.102;8.456;2024-03-23T09:18:17;18.10;60.70
11387;DHT22;5748;53.102;8.456;2024-03-23T09:20:44;18.10;64.10
11387;DHT22;5748;53.102;8.456;2024-03-23T09:23:10;18.30;64.40
11387;DHT22;5748;53.102;8.456;2024-03-23T09:25:40;18.40;64.20
11387;DHT22;5748;53.102;8.456;2024-03-23T09:28:09;18.60;61.30
11387;DHT22;5748;53.102;8.456;2024-03-23T09:30:36;18.50;61.70
11387;DHT22;5748;53.102;8.456;2024-03-23T09:33:09;18.50;61.30
11387;DHT22;5748;53.102;8.456;2024-03-23T09:35:37;18.40;58.30
11387;DHT22;5748;53.102;8.456;2024-03-23T09:38:04;18.30;59.60
11387;DHT22;5748;53.102;8.456;2024-03-23T09:40:32;18.20;60.20
11387;DHT22;5748;53.102;8.456;2024-03-23T09:42:59;18.10;59.70
11387;DHT22;5748;53.102;8.456;2024-03-23T09:45:27;18.00;60.30
11387;DHT22;5748;53.102;8.456;2024-03-23T09:47:54;17.90;59.90
11387;DHT22;5748;53.102;8.456;2024-03-23T09:50:23;17.70;59.20
11387;DHT22;5748;53.102;8.456;2024-03-23T09:52:49;17.70;60.70
11387;DHT22;5748;53.102;8.456;2024-03-23T09:55:17;17.70;61.10
11387;DHT22;5748;53.102;8.456;2024-03-23T09:57:43;17.80;61.60
11387;DHT22;5748;53.102;8.456;2024-03-23T10:00:11;17.90;59.90
11387;DHT22;5748;53.102;8.456;2024-03-23T10:02:38;18.20;64.30
11387;DHT22;5748;53.102;8.456;2024-03-23T10:05:20;18.60;65.40
11387;DHT22;5748;53.102;8.456;2024-03-23T10:07:49;18.90;62.70
11387;DHT22;5748;53.102;8.456;2024-03-23T10:10:16;19.20;63.50
11387;DHT22;5748;53.102;8.456;2024-03-23T10:12:45;19.40;62.90
11387;DHT22;5748;53.102;8.456;2024-03-23T10:15:19;19.60;62.30
11387;DHT22;5748;53.102;8.456;2024-03-23T10:17:45;19.70;61.00
11387;DHT22;5748;53.102;8.456;2024-03-23T10:20:13;20.10;62.50
11387;DHT22;5748;53.102;8.456;2024-03-23T10:22:39;20.10;64.30
11387;DHT22;5748;53.102;8.456;2024-03-23T10:28:28;20.90;59.30
11387;DHT22;5748;53.102;8.456;2024-03-23T10:30:54;21.20;61.30
11387;DHT22;5748;53.102;8.456;2024-03-23T10:33:21;21.30;61.70
11387;DHT22;5748;53.102;8.456;2024-03-23T10:35:48;21.50;61.30
11387;DHT22;5748;53.102;8.456;2024-03-23T10:38:16;21.60;58.10
11387;DHT22;5748;53.102;8.456;2024-03-23T10:40:42;21.70;60.50
11387;DHT22;5748;53.102;8.456;2024-03-23T10:43:12;21.80;61.30
11387;DHT22;5748;53.102;8.456;2024-03-23T10:45:39;22.00;61.40
11387;DHT22;5748;53.102;8.456;2024-03-23T10:48:07;22.60;61.90
11387;DHT22;5748;53.102;8.456;2024-03-23T10:50:33;22.60;62.60
11387;DHT22;5748;53.102;8.456;2024-03-23T10:53:00;23.00;62.80
11387;DHT22;5748;53.102;8.456;2024-03-23T10:55:28;23.50;61.60
11387;DHT22;5748;53.102;8.456;2024-03-23T10:57:56;23.90;62.40
11387;DHT22;5748;53.102;8.456;2024-03-23T11:00:25;24.50;59.40
11387;DHT22;5748;53.102;8.456;2024-03-23T11:02:52;24.50;60.10
11387;DHT22;5748;53.102;8.456;2024-03-23T11:05:30;24.90;61.60
11387;DHT22;5748;53.102;8.456;2024-03-23T11:07:58;25.40;58.50
11387;DHT22;5748;53.102;8.456;2024-03-23T11:10:28;25.90;61.90
11387;DHT22;5748;53.102;8.456;2024-03-23T11:12:55;26.50;60.80
11387;DHT22;5748;53.102;8.456;2024-03-23T11:15:21;26.90;59.60
11387;DHT22;5748;53.102;8.456;2024-03-23T11:18:06;27.40;59.90
11387;DHT22;5748;53.102;8.456;2024-03-23T11:20:34;27.80;55.50
11387;DHT22;5748;53.102;8.456;2024-03-23T11:23:02;27.90;56.40
11387;DHT22;5748;53.102;8.456;2024-03-23T11:25:29;28.00;56.50
11387;DHT22;5748;53.102;8.456;2024-03-23T11:27:57;27.90;54.40
11387;DHT22;5748;53.102;8.456;2024-03-23T11:30:24;27.60;54.30
11387;DHT22;5748;53.102;8.456;2024-03-23T11:32:53;27.40;54.40
11387;DHT22;5748;53.102;8.456;2024-03-23T11:35:40;27.10;53.80
11387;DHT22;5748;53.102;8.456;2024-03-23T11:38:08;26.40;52.40
11387;DHT22;5748;53.102;8.456;2024-03-23T11:40:37;26.30;52.80
11387;DHT22;5748;53.102;8.456;2024-03-23T11:43:06;25.90;53.10
11387;DHT22;5748;53.102;8.456;2024-03-23T11:45:37;25.50;53.00
11387;DHT22;5748;53.102;8.456;2024-03-23T11:48:07;24.70;49.90
11387;DHT22;5748;53.102;8.456;2024-03-23T11:50:37;24.60;50.60
11387;DHT22;5748;53.102;8.456;2024-03-23T11:53:12;24.20;50.80
11387;DHT22;5748;53.102;8.456;2024-03-23T11:55:41;23.90;51.40
11387;DHT22;5748;53.102;8.456;2024-03-23T11:58:09;24.00;54.10
11387;DHT22;5748;53.102;8.456;2024-03-23T12:00:35;24.00;55.20
11387;DHT22;5748;53.102;8.456;2024-03-23T12:03:03;24.20;52.90
11387;DHT22;5748;53.102;8.456;2024-03-23T12:05:30;24.20;52.00
11387;DHT22;5748;53.102;8.456;2024-03-23T12:08:17;23.40;49.50
11387;DHT22;5748;53.102;8.456;2024-03-23T12:10:46;23.30;48.40
11387;DHT22;5748;53.102;8.456;2024-03-23T12:13:19;22.70;48.80
11387;DHT22;5748;53.102;8.456;2024-03-23T12:15:46;22.10;48.10
11387;DHT22;5748;53.102;8.456;2024-03-23T12:18:14;20.60;46.00
11387;DHT22;5748;53.102;8.456;2024-03-23T12:20:40;20.50;47.60
11387;DHT22;5748;53.102;8.456;2024-03-23T12:23:08;19.70;48.00
11387;DHT22;5748;53.102;8.456;2024-03-23T12:25:38;19.00;49.00
11387;DHT22;5748;53.102;8.456;2024-03-23T12:28:06;18.50;53.60
11387;DHT22;5748;53.102;8.456;2024-03-23T12:30:34;18.50;54.60
11387;DHT22;5748;53.102;8.456;2024-03-23T12:33:02;18.90;57.30
11387;DHT22;5748;53.102;8.456;2024-03-23T12:35:29;19.50;58.80
11387;DHT22;5748;53.102;8.456;2024-03-23T12:37:56;20.40;59.90
11387;DHT22;5748;53.102;8.456;2024-03-23T12:40:22;21.30;59.60
11387;DHT22;5748;53.102;8.456;2024-03-23T12:42:51;22.30;60.10
11387;DHT22;5748;53.102;8.456;2024-03-23T12:45:17;23.20;59.50
11387;DHT22;5748;53.102;8.456;2024-03-23T12:47:44;24.10;58.80
11387;DHT22;5748;53.102;8.456;2024-03-23T12:50:10;25.10;55.80
11387;DHT22;5748;53.102;8.456;2024-03-23T12:52:37;25.80;58.40
11387;DHT22;5748;53.102;8.456;2024-03-23T12:55:04;26.60;57.90
11387;DHT22;5748;53.102;8.456;2024-03-23T12:57:32;27.30;56.30
11387;DHT22;5748;53.102;8.456;2024-03-23T13:00:00;27.90;52.10
11387;DHT22;5748;53.102;8.456;2024-03-23T13:02:27;28.20;52.90
11387;DHT22;5748;53.102;8.456;2024-03-23T13:04:53;28.40;52.50
11387;DHT22;5748;53.102;8.456;2024-03-23T13:07:22;28.30;51.10
11387;DHT22;5748;53.102;8.456;2024-03-23T13:09:50;28.00;46.90
11387;DHT22;5748;53.102;8.456;2024-03-23T13:12:18;27.70;46.90
11387;DHT22;5748;53.102;8.456;2024-03-23T13:14:44;27.20;47.70
11387;DHT22;5748;53.102;8.456;2024-03-23T13:17:13;26.40;46.80
11387;DHT22;5748;53.102;8.456;2024-03-23T13:19:39;25.20;45.10
11387;DHT22;5748;53.102;8.456;2024-03-23T13:22:07;24.70;47.30
11387;DHT22;5748;53.102;8.456;2024-03-23T13:24:33;23.80;46.50
11387;DHT22;5748;53.102;8.456;2024-03-23T13:27:01;23.00;47.10
11387;DHT22;5748;53.102;8.456;2024-03-23T13:31:55;21.50;46.90
11387;DHT22;5748;53.102;8.456;2024-03-23T13:34:22;21.00;48.40
11387;DHT22;5748;53.102;8.456;2024-03-23T13:36:49;20.40;47.90
11387;DHT22;5748;53.102;8.456;2024-03-23T13:39:15;19.80;47.00
11387;DHT22;5748;53.102;8.456;2024-03-23T13:41:43;19.60;48.40
11387;DHT22;5748;53.102;8.456;2024-03-23T13:44:10;19.20;48.40
11387;DHT22;5748;53.102;8.456;2024-03-23T13:46:39;18.40;48.20
11387;DHT22;5748;53.102;8.456;2024-03-23T13:49:06;18.20;47.60
11387;DHT22;5748;53.102;8.456;2024-03-23T13:51:35;18.00;48.90
11387;DHT22;5748;53.102;8.456;2024-03-23T13:56:29;17.50;48.80
11387;DHT22;5748;53.102;8.456;2024-03-23T13:58:55;17.10;48.30
11387;DHT22;5748;53.102;8.456;2024-03-23T14:01:23;17.00;49.40
11387;DHT22;5748;53.102;8.456;2024-03-23T14:03:50;16.70;49.30
11387;DHT22;5748;53.102;8.456;2024-03-23T14:06:17;16.70;49.90
11387;DHT22;5748;53.102;8.456;2024-03-23T14:08:45;16.80;50.00
11387;DHT22;5748;53.102;8.456;2024-03-23T14:11:12;16.80;51.20
11387;DHT22;5748;53.102;8.456;2024-03-23T14:13:38;16.90;51.10
11387;DHT22;5748;53.102;8.456;2024-03-23T14:16:06;16.80;50.80
11387;DHT22;5748;53.102;8.456;2024-03-23T14:18:32;16.70;47.80
11387;DHT22;5748;53.102;8.456;2024-03-23T14:21:00;16.50;49.80
11387;DHT22;5748;53.102;8.456;2024-03-23T14:23:27;16.50;50.60
11387;DHT22;5748;53.102;8.456;2024-03-23T14:25:56;16.50;51.60
11387;DHT22;5748;53.102;8.456;2024-03-23T14:28:22;16.50;51.20
11387;DHT22;5748;53.102;8.456;2024-03-23T14:30:50;16.50;51.70
11387;DHT22;5748;53.102;8.456;2024-03-23T14:33:17;16.60;51.80
11387;DHT22;5748;53.102;8.456;2024-03-23T14:35:52;16.70;51.50
11387;DHT22;5748;53.102;8.456;2024-03-23T14:38:18;16.80;50.30
11387;DHT22;5748;53.102;8.456;2024-03-23T14:40:45;16.80;51.40
11387;DHT22;5748;53.102;8.456;2024-03-23T14:43:13;16.80;51.00
11387;DHT22;5748;53.102;8.456;2024-03-23T14:48:33;17.00;49.60
11387;DHT22;5748;53.102;8.456;2024-03-23T14:51:00;16.90;50.80
11387;DHT22;5748;53.102;8.456;2024-03-23T14:53:27;17.00;50.90
11387;DHT22;5748;53.102;8.456;2024-03-23T14:55:55;17.00;50.60
11387;DHT22;5748;53.102;8.456;2024-03-23T14:58:22;17.10;49.60
11387;DHT22;5748;53.102;8.456;2024-03-23T15:00:50;17.00;50.50
11387;DHT22;5748;53.102;8.456;2024-03-23T15:03:17;17.10;50.10
11387;DHT22;5748;53.102;8.456;2024-03-23T15:05:52;17.00;49.70
11387;DHT22;5748;53.102;8.456;2024-03-23T15:10:46;16.80;49.50
11387;DHT22;5748;53.102;8.456;2024-03-23T15:13:12;16.70;50.00
11387;DHT22;5748;53.102;8.456;2024-03-23T15:15:41;16.40;48.40
11387;DHT22;5748;53.102;8.456;2024-03-23T15:18:10;16.30;47.80
11387;DHT22;5748;53.102;8.456;2024-03-23T15:20:38;16.20;48.50
11387;DHT22;5748;53.102;8.456;2024-03-23T15:23:04;16.10;48.60
11387;DHT22;5748;53.102;8.456;2024-03-23T15:25:32;15.80;48.00
11387;DHT22;5748;53.102;8.456;2024-03-23T15:27:58;15.50;48.10
11387;DHT22;5748;53.102;8.456;2024-03-23T15:30:25;15.30;47.80
11387;DHT22;5748;53.102;8.456;2024-03-23T15:32:53;15.10;48.30
11387;DHT22;5748;53.102;8.456;2024-03-23T15:35:20;14.90;48.40
11387;DHT22;5748;53.102;8.456;2024-03-23T15:37:48;14.70;48.40
11387;DHT22;5748;53.102;8.456;2024-03-23T15:40:15;14.50;48.00
11387;DHT22;5748;53.102;8.456;2024-03-23T15:42:42;14.40;49.10
11387;DHT22;5748;53.102;8.456;2024-03-23T15:45:09;14.30;49.00
11387;DHT22;5748;53.102;8.456;2024-03-23T15:47:35;14.20;49.50
11387;DHT22;5748;53.102;8.456;2024-03-23T15:50:05;14.20;49.30
11387;DHT22;5748;53.102;8.456;2024-03-23T15:52:34;14.20;50.10
11387;DHT22;5748;53.102;8.456;2024-03-23T15:55:03;14.20;50.20
11387;DHT22;5748;53.102;8.456;2024-03-23T15:57:32;14.30;50.10
11387;DHT22;5748;53.102;8.456;2024-03-23T16:00:00;14.20;49.30
11387;DHT22;5748;53.102;8.456;2024-03-23T16:02:26;14.10;49.30
11387;DHT22;5748;53.102;8.456;2024-03-23T16:07:22;14.10;49.50
11387;DHT22;5748;53.102;8.456;2024-03-23T16:09:49;14.00;49.60
11387;DHT22;5748;53.102;8.456;2024-03-23T16:14:43;13.90;49.70
11387;DHT22;5748;53.102;8.456;2024-03-23T16:17:09;13.80;50.20
11387;DHT22;5748;53.102;8.456;2024-03-23T16:22:03;13.50;49.80
11387;DHT22;5748;53.102;8.456;2024-03-23T16:24:31;13.30;50.40
11387;DHT22;5748;53.102;8.456;2024-03-23T16:26:57;13.20;50.70
11387;DHT22;5748;53.102;8.456;2024-03-23T16:29:24;13.00;51.10
11387;DHT22;5748;53.102;8.456;2024-03-23T16:31:50;13.00;51.20
11387;DHT22;5748;53.102;8.456;2024-03-23T16:34:17;12.90;51.20
11387;DHT22;5748;53.102;8.456;2024-03-23T16:36:43;12.80;51.30
11387;DHT22;5748;53.102;8.456;2024-03-23T16:39:10;12.70;51.30
11387;DHT22;5748;53.102;8.456;2024-03-23T16:41:38;12.70;51.20
11387;DHT22;5748;53.102;8.456;2024-03-23T16:44:05;12.60;51.40
11387;DHT22;5748;53.102;8.456;2024-03-23T16:46:31;12.50;51.30
11387;DHT22;5748;53.102;8.456;2024-03-23T16:48:58;12.40;51.60
11387;DHT22;5748;53.102;8.456;2024-03-23T16:51:24;12.30;51.60
11387;DHT22;5748;53.102;8.456;2024-03-23T16:53:51;12.30;51.60
11387;DHT22;5748;53.102;8.456;2024-03-23T16:56:18;12.20;51.60
11387;DHT22;5748;53.102;8.456;2024-03-23T16:58:46;12.00;51.50
11387;DHT22;5748;53.102;8.456;2024-03-23T17:01:14;11.90;51.70
11387;DHT22;5748;53.102;8.456;2024-03-23T17:03:46;11.90;52.00
11387;DHT22;5748;53.102;8.456;2024-03-23T17:06:14;11.90;52.20
11387;DHT22;5748;53.102;8.456;2024-03-23T17:08:42;11.80;52.20
11387;DHT22;5748;53.102;8.456;2024-03-23T17:11:09;12.20;52.60
11387;DHT22;5748;53.102;8.456;2024-03-23T17:13:36;12.40;52.80
11387;DHT22;5748;53.102;8.456;2024-03-23T17:16:04;11.80;52.30